sensor_id;sensor_type;location;lat;lon;timestamp;P1;durP1;ratioP1;P2;durP2;ratioP2
81697;SDS011;71109;52.514;5.708;2024-02-21T00:00:28;22.30;;;3.13;;
81697;SDS011;71109;52.514;5.708;2024-02-21T00:02:53;9.37;;;2.90;;
81697;SDS011;71109;52.514;5.708;2024-02-21T00:05:19;18.23;;;3.37;;
81697;SDS011;71109;52.514;5.708;2024-02-21T00:07:44;17.97;;;3.00;;
81697;SDS011;71109;52.514;5.708;2024-02-21T00:10:09;15.47;;;3.60;;
81697;SDS011;71109;52.514;5.708;2024-02-21T00:12:35;18.40;;;3.22;;
81697;SDS011;71109;52.514;5.708;2024-02-21T00:15:00;19.70;;;4.57;;
81697;SDS011;71109;52.514;5.708;2024-02-21T00:17:25;23.73;;;4.00;;
81697;SDS011;71109;52.514;5.708;2024-02-21T00:19:51;17.50;;;3.63;;
81697;SDS011;71109;52.514;5.708;2024-02-21T00:22:16;21.25;;;2.92;;
81697;SDS011;71109;52.514;5.708;2024-02-21T00:24:42;14.85;;;3.92;;
81697;SDS011;71109;52.514;5.708;2024-02-21T00:27:07;19.10;;;3.13;;
81697;SDS011;71109;52.514;5.708;2024-02-21T00:29:32;21.88;;;3.72;;
81697;SDS011;71109;52.514;5.708;2024-02-21T00:31:59;19.00;;;3.15;;
81697;SDS011;71109;52.514;5.708;2024-02-21T00:34:24;25.08;;;4.25;;
81697;SDS011;71109;52.514;5.708;2024-02-21T00:36:50;32.47;;;4.70;;
81697;SDS011;71109;52.514;5.708;2024-02-21T00:39:15;33.88;;;4.97;;
81697;SDS011;71109;52.514;5.708;2024-02-21T00:41:41;21.83;;;4.00;;
81697;SDS011;71109;52.514;5.708;2024-02-21T00:44:06;15.33;;;3.43;;
81697;SDS011;71109;52.514;5.708;2024-02-21T00:46:31;23.17;;;5.03;;
81697;SDS011;71109;52.514;5.708;2024-02-21T00:48:57;28.02;;;4.53;;
81697;SDS011;71109;52.514;5.708;2024-02-21T00:51:22;26.30;;;4.03;;
81697;SDS011;71109;52.514;5.708;2024-02-21T00:53:47;29.38;;;4.68;;
81697;SDS011;71109;52.514;5.708;2024-02-21T00:56:13;23.77;;;4.63;;
81697;SDS011;71109;52.514;5.708;2024-02-21T00:58:38;24.40;;;5.23;;
81697;SDS011;71109;52.514;5.708;2024-02-21T01:01:03;23.57;;;4.57;;
81697;SDS011;71109;52.514;5.708;2024-02-21T01:03:29;20.27;;;3.28;;
81697;SDS011;71109;52.514;5.708;2024-02-21T01:05:54;28.17;;;4.03;;
81697;SDS011;71109;52.514;5.708;2024-02-21T01:08:19;26.55;;;4.45;;
81697;SDS011;71109;52.514;5.708;2024-02-21T01:10:45;35.10;;;4.57;;
81697;SDS011;71109;52.514;5.708;2024-02-21T01:13:10;18.03;;;3.53;;
81697;SDS011;71109;52.514;5.708;2024-02-21T01:15:35;20.73;;;4.43;;
81697;SDS011;71109;52.514;5.708;2024-02-21T01:18:01;29.23;;;4.60;;
81697;SDS011;71109;52.514;5.708;2024-02-21T01:20:26;32.55;;;4.55;;
81697;SDS011;71109;52.514;5.708;2024-02-21T01:22:52;20.70;;;3.55;;
81697;SDS011;71109;52.514;5.708;2024-02-21T01:25:17;24.80;;;4.80;;
81697;SDS011;71109;52.514;5.708;2024-02-21T01:27:42;23.60;;;3.67;;
81697;SDS011;71109;52.514;5.708;2024-02-21T01:30:08;23.40;;;3.80;;
81697;SDS011;71109;52.514;5.708;2024-02-21T01:32:35;27.80;;;4.18;;
81697;SDS011;71109;52.514;5.708;2024-02-21T01:35:00;22.63;;;3.85;;
81697;SDS011;71109;52.514;5.708;2024-02-21T01:37:26;21.83;;;4.72;;
81697;SDS011;71109;52.514;5.708;2024-02-21T01:39:52;21.75;;;3.20;;
81697;SDS011;71109;52.514;5.708;2024-02-21T01:42:18;22.33;;;3.90;;
81697;SDS011;71109;52.514;5.708;2024-02-21T01:44:43;19.30;;;4.00;;
81697;SDS011;71109;52.514;5.708;2024-02-21T01:47:08;19.33;;;3.43;;
81697;SDS011;71109;52.514;5.708;2024-02-21T01:49:34;15.55;;;3.75;;
81697;SDS011;71109;52.514;5.708;2024-02-21T01:52:00;27.20;;;4.60;;
81697;SDS011;71109;52.514;5.708;2024-02-21T01:54:26;35.95;;;6.50;;
81697;SDS011;71109;52.514;5.708;2024-02-21T01:56:53;32.95;;;4.43;;
81697;SDS011;71109;52.514;5.708;2024-02-21T01:59:19;16.35;;;3.97;;
81697;SDS011;71109;52.514;5.708;2024-02-21T02:01:44;13.02;;;2.97;;
81697;SDS011;71109;52.514;5.708;2024-02-21T02:04:11;34.05;;;4.95;;
81697;SDS011;71109;52.514;5.708;2024-02-21T02:06:37;18.13;;;3.13;;
81697;SDS011;71109;52.514;5.708;2024-02-21T02:09:02;26.20;;;4.57;;
81697;SDS011;71109;52.514;5.708;2024-02-21T02:11:28;24.73;;;3.67;;
81697;SDS011;71109;52.514;5.708;2024-02-21T02:13:53;16.27;;;4.10;;
81697;SDS011;71109;52.514;5.708;2024-02-21T02:16:19;23.20;;;5.07;;
81697;SDS011;71109;52.514;5.708;2024-02-21T02:18:44;18.73;;;3.40;;
81697;SDS011;71109;52.514;5.708;2024-02-21T02:21:53;19.30;;;3.90;;
81697;SDS011;71109;52.514;5.708;2024-02-21T02:23:59;45.25;;;5.90;;
81697;SDS011;71109;52.514;5.708;2024-02-21T02:26:25;17.98;;;4.47;;
81697;SDS011;71109;52.514;5.708;2024-02-21T02:28:50;24.17;;;5.20;;
81697;SDS011;71109;52.514;5.708;2024-02-21T02:31:16;22.50;;;3.37;;
81697;SDS011;71109;52.514;5.708;2024-02-21T02:33:44;20.00;;;3.78;;
81697;SDS011;71109;52.514;5.708;2024-02-21T02:36:10;29.13;;;4.80;;
81697;SDS011;71109;52.514;5.708;2024-02-21T02:38:35;17.17;;;3.95;;
81697;SDS011;71109;52.514;5.708;2024-02-21T02:41:00;18.67;;;4.17;;
81697;SDS011;71109;52.514;5.708;2024-02-21T02:43:26;15.38;;;4.07;;
81697;SDS011;71109;52.514;5.708;2024-02-21T02:45:51;30.47;;;5.17;;
81697;SDS011;71109;52.514;5.708;2024-02-21T02:48:16;41.00;;;3.73;;
81697;SDS011;71109;52.514;5.708;2024-02-21T02:50:42;35.40;;;4.80;;
81697;SDS011;71109;52.514;5.708;2024-02-21T02:53:07;29.27;;;4.20;;
81697;SDS011;71109;52.514;5.708;2024-02-21T02:55:32;26.10;;;5.43;;
81697;SDS011;71109;52.514;5.708;2024-02-21T02:57:58;34.08;;;4.28;;
81697;SDS011;71109;52.514;5.708;2024-02-21T03:00:23;21.17;;;4.60;;
81697;SDS011;71109;52.514;5.708;2024-02-21T03:02:49;27.98;;;4.72;;
81697;SDS011;71109;52.514;5.708;2024-02-21T03:05:15;34.75;;;4.88;;
81697;SDS011;71109;52.514;5.708;2024-02-21T03:07:42;31.88;;;4.97;;
81697;SDS011;71109;52.514;5.708;2024-02-21T03:10:07;35.58;;;5.35;;
81697;SDS011;71109;52.514;5.708;2024-02-21T03:12:33;25.38;;;5.13;;
81697;SDS011;71109;52.514;5.708;2024-02-21T03:14:58;28.75;;;4.68;;
81697;SDS011;71109;52.514;5.708;2024-02-21T03:17:24;31.00;;;4.60;;
81697;SDS011;71109;52.514;5.708;2024-02-21T03:19:52;22.85;;;4.13;;
81697;SDS011;71109;52.514;5.708;2024-02-21T03:22:17;44.58;;;5.57;;
81697;SDS011;71109;52.514;5.708;2024-02-21T03:24:42;21.97;;;4.20;;
81697;SDS011;71109;52.514;5.708;2024-02-21T03:27:08;27.50;;;5.05;;
81697;SDS011;71109;52.514;5.708;2024-02-21T03:29:33;22.23;;;4.53;;
81697;SDS011;71109;52.514;5.708;2024-02-21T03:31:59;29.33;;;5.10;;
81697;SDS011;71109;52.514;5.708;2024-02-21T03:34:24;33.30;;;5.82;;
81697;SDS011;71109;52.514;5.708;2024-02-21T03:36:49;30.63;;;5.47;;
81697;SDS011;71109;52.514;5.708;2024-02-21T03:39:15;24.13;;;5.30;;
81697;SDS011;71109;52.514;5.708;2024-02-21T03:41:40;31.50;;;6.17;;
81697;SDS011;71109;52.514;5.708;2024-02-21T03:44:05;33.60;;;4.80;;
81697;SDS011;71109;52.514;5.708;2024-02-21T03:46:31;20.57;;;4.87;;
81697;SDS011;71109;52.514;5.708;2024-02-21T03:48:56;25.90;;;4.68;;
81697;SDS011;71109;52.514;5.708;2024-02-21T03:51:22;26.73;;;7.25;;
81697;SDS011;71109;52.514;5.708;2024-02-21T03:53:47;22.30;;;3.95;;
81697;SDS011;71109;52.514;5.708;2024-02-21T03:56:13;15.55;;;3.95;;
81697;SDS011;71109;52.514;5.708;2024-02-21T03:58:38;36.10;;;4.83;;
81697;SDS011;71109;52.514;5.708;2024-02-21T04:01:03;43.23;;;6.33;;
81697;SDS011;71109;52.514;5.708;2024-02-21T04:03:29;21.30;;;4.55;;
81697;SDS011;71109;52.514;5.708;2024-02-21T04:05:55;30.40;;;5.75;;
81697;SDS011;71109;52.514;5.708;2024-02-21T04:08:21;25.40;;;4.87;;
81697;SDS011;71109;52.514;5.708;2024-02-21T04:10:46;20.90;;;3.40;;
81697;SDS011;71109;52.514;5.708;2024-02-21T04:13:12;24.92;;;6.20;;
81697;SDS011;71109;52.514;5.708;2024-02-21T04:15:37;28.52;;;4.85;;
81697;SDS011;71109;52.514;5.708;2024-02-21T04:18:02;26.67;;;4.27;;
81697;SDS011;71109;52.514;5.708;2024-02-21T04:20:28;29.65;;;4.82;;
81697;SDS011;71109;52.514;5.708;2024-02-21T04:22:53;26.95;;;4.80;;
81697;SDS011;71109;52.514;5.708;2024-02-21T04:25:19;28.67;;;6.23;;
81697;SDS011;71109;52.514;5.708;2024-02-21T04:27:44;22.55;;;4.78;;
81697;SDS011;71109;52.514;5.708;2024-02-21T04:30:10;34.40;;;5.30;;
81697;SDS011;71109;52.514;5.708;2024-02-21T04:32:35;39.40;;;5.28;;
81697;SDS011;71109;52.514;5.708;2024-02-21T04:35:01;22.30;;;4.80;;
81697;SDS011;71109;52.514;5.708;2024-02-21T04:37:26;29.50;;;5.32;;
81697;SDS011;71109;52.514;5.708;2024-02-21T04:39:51;34.33;;;5.13;;
81697;SDS011;71109;52.514;5.708;2024-02-21T04:42:17;24.65;;;6.40;;
81697;SDS011;71109;52.514;5.708;2024-02-21T04:44:42;24.90;;;5.35;;
81697;SDS011;71109;52.514;5.708;2024-02-21T04:47:08;27.23;;;6.30;;
81697;SDS011;71109;52.514;5.708;2024-02-21T04:49:34;30.88;;;5.47;;
81697;SDS011;71109;52.514;5.708;2024-02-21T04:51:59;16.20;;;6.25;;
81697;SDS011;71109;52.514;5.708;2024-02-21T04:54:25;27.85;;;5.53;;
81697;SDS011;71109;52.514;5.708;2024-02-21T04:56:50;32.93;;;5.83;;
81697;SDS011;71109;52.514;5.708;2024-02-21T04:59:16;22.30;;;5.00;;
81697;SDS011;71109;52.514;5.708;2024-02-21T05:01:41;23.00;;;5.35;;
81697;SDS011;71109;52.514;5.708;2024-02-21T05:04:06;33.63;;;5.60;;
81697;SDS011;71109;52.514;5.708;2024-02-21T05:06:32;24.98;;;5.97;;
81697;SDS011;71109;52.514;5.708;2024-02-21T05:09:02;37.58;;;5.43;;
81697;SDS011;71109;52.514;5.708;2024-02-21T05:11:28;28.42;;;6.15;;
81697;SDS011;71109;52.514;5.708;2024-02-21T05:13:53;36.47;;;5.03;;
81697;SDS011;71109;52.514;5.708;2024-02-21T05:16:18;27.57;;;6.13;;
81697;SDS011;71109;52.514;5.708;2024-02-21T05:18:44;25.60;;;7.65;;
81697;SDS011;71109;52.514;5.708;2024-02-21T05:21:09;21.30;;;5.80;;
81697;SDS011;71109;52.514;5.708;2024-02-21T05:23:35;27.55;;;6.03;;
81697;SDS011;71109;52.514;5.708;2024-02-21T05:26:00;17.47;;;5.37;;
81697;SDS011;71109;52.514;5.708;2024-02-21T05:28:25;29.33;;;6.83;;
81697;SDS011;71109;52.514;5.708;2024-02-21T05:30:51;28.07;;;6.67;;
81697;SDS011;71109;52.514;5.708;2024-02-21T05:33:16;25.17;;;6.55;;
81697;SDS011;71109;52.514;5.708;2024-02-21T05:35:46;29.58;;;7.53;;
81697;SDS011;71109;52.514;5.708;2024-02-21T05:38:14;30.27;;;6.55;;
81697;SDS011;71109;52.514;5.708;2024-02-21T05:40:40;26.17;;;7.90;;
81697;SDS011;71109;52.514;5.708;2024-02-21T05:43:06;33.78;;;9.35;;
81697;SDS011;71109;52.514;5.708;2024-02-21T05:45:32;20.77;;;8.50;;
81697;SDS011;71109;52.514;5.708;2024-02-21T05:47:57;26.47;;;8.70;;
81697;SDS011;71109;52.514;5.708;2024-02-21T05:50:23;30.00;;;10.75;;
81697;SDS011;71109;52.514;5.708;2024-02-21T05:52:50;33.17;;;9.25;;
81697;SDS011;71109;52.514;5.708;2024-02-21T05:55:16;28.38;;;9.82;;
81697;SDS011;71109;52.514;5.708;2024-02-21T05:57:41;25.00;;;10.02;;
81697;SDS011;71109;52.514;5.708;2024-02-21T06:00:07;32.87;;;11.40;;
81697;SDS011;71109;52.514;5.708;2024-02-21T06:02:33;29.23;;;11.18;;
81697;SDS011;71109;52.514;5.708;2024-02-21T06:04:58;29.80;;;10.40;;
81697;SDS011;71109;52.514;5.708;2024-02-21T06:07:23;35.47;;;11.47;;
81697;SDS011;71109;52.514;5.708;2024-02-21T06:09:49;32.83;;;10.83;;
81697;SDS011;71109;52.514;5.708;2024-02-21T06:12:14;36.37;;;12.13;;
81697;SDS011;71109;52.514;5.708;2024-02-21T06:14:39;30.43;;;11.83;;
81697;SDS011;71109;52.514;5.708;2024-02-21T06:17:04;37.33;;;11.00;;
81697;SDS011;71109;52.514;5.708;2024-02-21T06:19:30;32.93;;;11.70;;
81697;SDS011;71109;52.514;5.708;2024-02-21T06:21:55;35.93;;;10.40;;
81697;SDS011;71109;52.514;5.708;2024-02-21T06:24:20;31.87;;;10.20;;
81697;SDS011;71109;52.514;5.708;2024-02-21T06:26:46;37.08;;;11.25;;
81697;SDS011;71109;52.514;5.708;2024-02-21T06:29:12;31.05;;;13.05;;
81697;SDS011;71109;52.514;5.708;2024-02-21T06:31:38;27.73;;;11.30;;
81697;SDS011;71109;52.514;5.708;2024-02-21T06:34:04;38.92;;;11.68;;
81697;SDS011;71109;52.514;5.708;2024-02-21T06:36:29;28.48;;;10.45;;
81697;SDS011;71109;52.514;5.708;2024-02-21T06:38:54;35.97;;;12.55;;
81697;SDS011;71109;52.514;5.708;2024-02-21T06:41:20;42.40;;;12.10;;
81697;SDS011;71109;52.514;5.708;2024-02-21T06:43:46;36.85;;;12.82;;
81697;SDS011;71109;52.514;5.708;2024-02-21T06:46:12;39.33;;;12.73;;
81697;SDS011;71109;52.514;5.708;2024-02-21T06:48:37;30.58;;;11.73;;
81697;SDS011;71109;52.514;5.708;2024-02-21T06:51:03;31.08;;;10.68;;
81697;SDS011;71109;52.514;5.708;2024-02-21T06:53:29;32.60;;;12.05;;
81697;SDS011;71109;52.514;5.708;2024-02-21T06:55:55;31.90;;;11.52;;
81697;SDS011;71109;52.514;5.708;2024-02-21T06:58:20;31.40;;;11.43;;
81697;SDS011;71109;52.514;5.708;2024-02-21T07:00:45;35.97;;;12.27;;
81697;SDS011;71109;52.514;5.708;2024-02-21T07:03:11;29.47;;;12.30;;
81697;SDS011;71109;52.514;5.708;2024-02-21T07:05:36;26.63;;;11.98;;
81697;SDS011;71109;52.514;5.708;2024-02-21T07:08:01;30.73;;;11.80;;
81697;SDS011;71109;52.514;5.708;2024-02-21T07:10:28;30.83;;;12.80;;
81697;SDS011;71109;52.514;5.708;2024-02-21T07:12:54;32.17;;;12.38;;
81697;SDS011;71109;52.514;5.708;2024-02-21T07:15:19;30.08;;;11.35;;
81697;SDS011;71109;52.514;5.708;2024-02-21T07:17:45;28.55;;;12.52;;
81697;SDS011;71109;52.514;5.708;2024-02-21T07:20:10;24.77;;;11.80;;
81697;SDS011;71109;52.514;5.708;2024-02-21T07:22:36;26.27;;;11.05;;
81697;SDS011;71109;52.514;5.708;2024-02-21T07:25:01;26.27;;;11.13;;
81697;SDS011;71109;52.514;5.708;2024-02-21T07:27:26;32.45;;;11.32;;
81697;SDS011;71109;52.514;5.708;2024-02-21T07:29:55;28.50;;;11.90;;
81697;SDS011;71109;52.514;5.708;2024-02-21T07:32:21;26.38;;;10.95;;
81697;SDS011;71109;52.514;5.708;2024-02-21T07:34:46;28.00;;;11.60;;
81697;SDS011;71109;52.514;5.708;2024-02-21T07:37:11;33.65;;;11.45;;
81697;SDS011;71109;52.514;5.708;2024-02-21T07:39:37;28.33;;;11.13;;
81697;SDS011;71109;52.514;5.708;2024-02-21T07:42:02;26.77;;;11.63;;
81697;SDS011;71109;52.514;5.708;2024-02-21T07:44:28;28.88;;;11.25;;
81697;SDS011;71109;52.514;5.708;2024-02-21T07:46:53;29.63;;;10.90;;
81697;SDS011;71109;52.514;5.708;2024-02-21T07:49:18;24.77;;;12.07;;
81697;SDS011;71109;52.514;5.708;2024-02-21T07:51:44;32.73;;;11.23;;
81697;SDS011;71109;52.514;5.708;2024-02-21T07:54:09;30.63;;;11.80;;
81697;SDS011;71109;52.514;5.708;2024-02-21T07:56:34;34.57;;;13.13;;
81697;SDS011;71109;52.514;5.708;2024-02-21T07:59:00;24.50;;;11.40;;
81697;SDS011;71109;52.514;5.708;2024-02-21T08:01:25;30.13;;;13.07;;
81697;SDS011;71109;52.514;5.708;2024-02-21T08:03:50;42.17;;;13.57;;
81697;SDS011;71109;52.514;5.708;2024-02-21T08:06:16;26.67;;;12.23;;
81697;SDS011;71109;52.514;5.708;2024-02-21T08:08:41;25.43;;;12.53;;
81697;SDS011;71109;52.514;5.708;2024-02-21T08:11:06;28.42;;;13.25;;
81697;SDS011;71109;52.514;5.708;2024-02-21T08:13:32;34.13;;;14.52;;
81697;SDS011;71109;52.514;5.708;2024-02-21T08:15:57;35.27;;;14.10;;
81697;SDS011;71109;52.514;5.708;2024-02-21T08:18:23;33.33;;;13.80;;
81697;SDS011;71109;52.514;5.708;2024-02-21T08:20:48;28.25;;;13.43;;
81697;SDS011;71109;52.514;5.708;2024-02-21T08:23:15;39.10;;;15.38;;
81697;SDS011;71109;52.514;5.708;2024-02-21T08:25:41;38.47;;;14.63;;
81697;SDS011;71109;52.514;5.708;2024-02-21T08:28:06;38.20;;;13.68;;
81697;SDS011;71109;52.514;5.708;2024-02-21T08:30:33;30.70;;;15.27;;
81697;SDS011;71109;52.514;5.708;2024-02-21T08:32:58;38.17;;;13.68;;
81697;SDS011;71109;52.514;5.708;2024-02-21T08:35:23;49.80;;;16.30;;
81697;SDS011;71109;52.514;5.708;2024-02-21T08:37:49;30.50;;;13.98;;
81697;SDS011;71109;52.514;5.708;2024-02-21T08:40:14;38.65;;;16.23;;
81697;SDS011;71109;52.514;5.708;2024-02-21T08:42:42;45.38;;;15.57;;
81697;SDS011;71109;52.514;5.708;2024-02-21T08:45:08;40.45;;;15.32;;
81697;SDS011;71109;52.514;5.708;2024-02-21T08:47:34;35.58;;;15.35;;
81697;SDS011;71109;52.514;5.708;2024-02-21T08:50:01;40.55;;;16.20;;
81697;SDS011;71109;52.514;5.708;2024-02-21T08:52:29;38.00;;;14.65;;
81697;SDS011;71109;52.514;5.708;2024-02-21T08:54:54;46.57;;;15.90;;
81697;SDS011;71109;52.514;5.708;2024-02-21T08:57:20;37.33;;;15.15;;
81697;SDS011;71109;52.514;5.708;2024-02-21T08:59:45;43.70;;;16.63;;
81697;SDS011;71109;52.514;5.708;2024-02-21T09:02:12;31.73;;;14.95;;
81697;SDS011;71109;52.514;5.708;2024-02-21T09:04:37;40.30;;;15.65;;
81697;SDS011;71109;52.514;5.708;2024-02-21T09:07:03;37.40;;;14.45;;
81697;SDS011;71109;52.514;5.708;2024-02-21T09:09:28;36.88;;;15.98;;
81697;SDS011;71109;52.514;5.708;2024-02-21T09:11:54;40.95;;;16.65;;
81697;SDS011;71109;52.514;5.708;2024-02-21T09:14:19;52.80;;;17.03;;
81697;SDS011;71109;52.514;5.708;2024-02-21T09:16:44;32.80;;;14.57;;
81697;SDS011;71109;52.514;5.708;2024-02-21T09:19:10;39.80;;;16.43;;
81697;SDS011;71109;52.514;5.708;2024-02-21T09:21:38;39.88;;;17.08;;
81697;SDS011;71109;52.514;5.708;2024-02-21T09:24:04;33.70;;;14.50;;
81697;SDS011;71109;52.514;5.708;2024-02-21T09:26:30;42.70;;;14.95;;
81697;SDS011;71109;52.514;5.708;2024-02-21T09:28:56;41.43;;;14.43;;
81697;SDS011;71109;52.514;5.708;2024-02-21T09:31:21;35.15;;;14.25;;
81697;SDS011;71109;52.514;5.708;2024-02-21T09:33:46;47.85;;;14.80;;
81697;SDS011;71109;52.514;5.708;2024-02-21T09:36:12;36.13;;;13.60;;
81697;SDS011;71109;52.514;5.708;2024-02-21T09:38:39;27.07;;;11.43;;
81697;SDS011;71109;52.514;5.708;2024-02-21T09:43:43;30.75;;;12.15;;
81697;SDS011;71109;52.514;5.708;2024-02-21T09:46:13;30.83;;;12.98;;
81697;SDS011;71109;52.514;5.708;2024-02-21T09:48:48;29.98;;;12.95;;
81697;SDS011;71109;52.514;5.708;2024-02-21T09:51:18;31.10;;;12.20;;
81697;SDS011;71109;52.514;5.708;2024-02-21T09:53:44;34.53;;;12.40;;
81697;SDS011;71109;52.514;5.708;2024-02-21T09:56:09;28.40;;;12.90;;
81697;SDS011;71109;52.514;5.708;2024-02-21T09:58:35;33.50;;;11.30;;
81697;SDS011;71109;52.514;5.708;2024-02-21T10:01:01;29.73;;;12.43;;
81697;SDS011;71109;52.514;5.708;2024-02-21T10:03:29;24.23;;;11.63;;
81697;SDS011;71109;52.514;5.708;2024-02-21T10:05:54;23.77;;;12.03;;
81697;SDS011;71109;52.514;5.708;2024-02-21T10:08:19;31.23;;;12.60;;
81697;SDS011;71109;52.514;5.708;2024-02-21T10:10:45;25.20;;;11.52;;
81697;SDS011;71109;52.514;5.708;2024-02-21T10:13:21;23.10;;;11.07;;
81697;SDS011;71109;52.514;5.708;2024-02-21T10:15:49;23.80;;;10.57;;
81697;SDS011;71109;52.514;5.708;2024-02-21T10:18:25;26.80;;;10.93;;
81697;SDS011;71109;52.514;5.708;2024-02-21T10:20:59;25.80;;;10.77;;
81697;SDS011;71109;52.514;5.708;2024-02-21T10:23:25;29.48;;;11.68;;
81697;SDS011;71109;52.514;5.708;2024-02-21T10:25:50;26.37;;;10.13;;
81697;SDS011;71109;52.514;5.708;2024-02-21T10:28:16;30.05;;;10.13;;
81697;SDS011;71109;52.514;5.708;2024-02-21T10:30:50;23.35;;;9.10;;
81697;SDS011;71109;52.514;5.708;2024-02-21T10:33:16;25.02;;;9.57;;
81697;SDS011;71109;52.514;5.708;2024-02-21T10:35:45;26.92;;;9.23;;
81697;SDS011;71109;52.514;5.708;2024-02-21T10:38:12;21.48;;;9.63;;
81697;SDS011;71109;52.514;5.708;2024-02-21T10:40:37;27.00;;;8.77;;
81697;SDS011;71109;52.514;5.708;2024-02-21T10:43:03;17.85;;;8.55;;
81697;SDS011;71109;52.514;5.708;2024-02-21T10:50:36;16.95;;;8.52;;
81697;SDS011;71109;52.514;5.708;2024-02-21T10:53:35;19.20;;;7.57;;
81697;SDS011;71109;52.514;5.708;2024-02-21T10:58:39;18.67;;;6.90;;
81697;SDS011;71109;52.514;5.708;2024-02-21T11:01:05;17.95;;;7.70;;
81697;SDS011;71109;52.514;5.708;2024-02-21T11:03:31;19.40;;;7.60;;
81697;SDS011;71109;52.514;5.708;2024-02-21T11:05:56;15.38;;;6.40;;
81697;SDS011;71109;52.514;5.708;2024-02-21T11:08:22;14.05;;;6.97;;
81697;SDS011;71109;52.514;5.708;2024-02-21T11:10:50;18.40;;;6.55;;
81697;SDS011;71109;52.514;5.708;2024-02-21T11:13:15;12.53;;;6.30;;
81697;SDS011;71109;52.514;5.708;2024-02-21T11:15:40;20.10;;;6.65;;
81697;SDS011;71109;52.514;5.708;2024-02-21T11:18:06;13.90;;;7.32;;
81697;SDS011;71109;52.514;5.708;2024-02-21T11:20:35;14.93;;;6.07;;
81697;SDS011;71109;52.514;5.708;2024-02-21T11:23:01;14.23;;;5.85;;
81697;SDS011;71109;52.514;5.708;2024-02-21T11:25:27;12.73;;;5.78;;
81697;SDS011;71109;52.514;5.708;2024-02-21T11:28:00;13.88;;;6.30;;
81697;SDS011;71109;52.514;5.708;2024-02-21T11:30:27;18.35;;;6.53;;
81697;SDS011;71109;52.514;5.708;2024-02-21T11:33:05;16.88;;;5.68;;
81697;SDS011;71109;52.514;5.708;2024-02-21T11:35:32;10.68;;;5.07;;
81697;SDS011;71109;52.514;5.708;2024-02-21T11:38:11;16.13;;;5.70;;
81697;SDS011;71109;52.514;5.708;2024-02-21T11:40:42;10.43;;;5.40;;
81697;SDS011;71109;52.514;5.708;2024-02-21T11:43:10;12.98;;;5.80;;
81697;SDS011;71109;52.514;5.708;2024-02-21T11:45:36;13.15;;;5.85;;
81697;SDS011;71109;52.514;5.708;2024-02-21T11:48:01;13.60;;;5.50;;
81697;SDS011;71109;52.514;5.708;2024-02-21T11:50:29;13.02;;;4.72;;
81697;SDS011;71109;52.514;5.708;2024-02-21T11:52:55;12.25;;;5.72;;
81697;SDS011;71109;52.514;5.708;2024-02-21T11:55:21;15.80;;;5.88;;
81697;SDS011;71109;52.514;5.708;2024-02-21T11:57:50;10.27;;;5.53;;
81697;SDS011;71109;52.514;5.708;2024-02-21T12:00:16;10.55;;;4.85;;
81697;SDS011;71109;52.514;5.708;2024-02-21T12:02:43;8.13;;;4.03;;
81697;SDS011;71109;52.514;5.708;2024-02-21T12:05:09;12.55;;;5.47;;
81697;SDS011;71109;52.514;5.708;2024-02-21T12:07:36;18.40;;;5.50;;
81697;SDS011;71109;52.514;5.708;2024-02-21T12:10:06;10.27;;;5.20;;
81697;SDS011;71109;52.514;5.708;2024-02-21T12:12:34;10.88;;;5.00;;
81697;SDS011;71109;52.514;5.708;2024-02-21T12:15:02;11.95;;;5.93;;
81697;SDS011;71109;52.514;5.708;2024-02-21T12:17:29;12.43;;;7.78;;
81697;SDS011;71109;52.514;5.708;2024-02-21T12:19:55;9.77;;;5.25;;
81697;SDS011;71109;52.514;5.708;2024-02-21T12:22:21;12.95;;;5.95;;
81697;SDS011;71109;52.514;5.708;2024-02-21T12:24:47;14.95;;;6.05;;
81697;SDS011;71109;52.514;5.708;2024-02-21T12:27:12;13.80;;;6.38;;
81697;SDS011;71109;52.514;5.708;2024-02-21T12:29:38;14.52;;;6.78;;
81697;SDS011;71109;52.514;5.708;2024-02-21T12:32:03;13.90;;;5.57;;
81697;SDS011;71109;52.514;5.708;2024-02-21T12:34:29;12.77;;;6.18;;
81697;SDS011;71109;52.514;5.708;2024-02-21T12:36:58;11.38;;;5.82;;
81697;SDS011;71109;52.514;5.708;2024-02-21T12:39:23;12.00;;;5.97;;
81697;SDS011;71109;52.514;5.708;2024-02-21T12:41:48;10.83;;;6.60;;
81697;SDS011;71109;52.514;5.708;2024-02-21T12:44:14;14.90;;;6.55;;
81697;SDS011;71109;52.514;5.708;2024-02-21T12:46:41;17.27;;;5.95;;
81697;SDS011;71109;52.514;5.708;2024-02-21T12:49:06;11.82;;;6.60;;
81697;SDS011;71109;52.514;5.708;2024-02-21T12:51:35;10.85;;;6.68;;
81697;SDS011;71109;52.514;5.708;2024-02-21T12:54:00;12.32;;;5.65;;
81697;SDS011;71109;52.514;5.708;2024-02-21T12:56:26;17.03;;;6.17;;
81697;SDS011;71109;52.514;5.708;2024-02-21T12:58:52;12.07;;;6.07;;
81697;SDS011;71109;52.514;5.708;2024-02-21T13:01:18;14.52;;;6.85;;
81697;SDS011;71109;52.514;5.708;2024-02-21T13:03:43;10.98;;;6.13;;
81697;SDS011;71109;52.514;5.708;2024-02-21T13:06:09;14.15;;;6.53;;
81697;SDS011;71109;52.514;5.708;2024-02-21T13:08:35;15.02;;;7.35;;
81697;SDS011;71109;52.514;5.708;2024-02-21T13:11:01;13.45;;;6.60;;
81697;SDS011;71109;52.514;5.708;2024-02-21T13:13:27;16.02;;;6.47;;
81697;SDS011;71109;52.514;5.708;2024-02-21T13:15:52;21.80;;;5.78;;
81697;SDS011;71109;52.514;5.708;2024-02-21T13:18:18;13.05;;;5.95;;
81697;SDS011;71109;52.514;5.708;2024-02-21T13:20:43;14.20;;;6.30;;
81697;SDS011;71109;52.514;5.708;2024-02-21T13:23:08;11.07;;;5.20;;
81697;SDS011;71109;52.514;5.708;2024-02-21T13:25:34;13.23;;;6.37;;
81697;SDS011;71109;52.514;5.708;2024-02-21T13:27:59;14.40;;;6.93;;
81697;SDS011;71109;52.514;5.708;2024-02-21T13:30:24;14.52;;;5.57;;
81697;SDS011;71109;52.514;5.708;2024-02-21T13:32:50;11.38;;;5.38;;
81697;SDS011;71109;52.514;5.708;2024-02-21T13:35:16;15.38;;;5.63;;
81697;SDS011;71109;52.514;5.708;2024-02-21T13:37:41;16.77;;;6.03;;
81697;SDS011;71109;52.514;5.708;2024-02-21T13:40:07;17.88;;;5.72;;
81697;SDS011;71109;52.514;5.708;2024-02-21T13:42:34;11.45;;;5.60;;
81697;SDS011;71109;52.514;5.708;2024-02-21T13:44:59;13.00;;;6.47;;
81697;SDS011;71109;52.514;5.708;2024-02-21T13:47:26;8.70;;;5.00;;
81697;SDS011;71109;52.514;5.708;2024-02-21T13:49:51;11.25;;;5.30;;
81697;SDS011;71109;52.514;5.708;2024-02-21T13:52:17;9.00;;;5.82;;
81697;SDS011;71109;52.514;5.708;2024-02-21T13:54:45;17.27;;;5.78;;
81697;SDS011;71109;52.514;5.708;2024-02-21T13:57:10;9.88;;;5.43;;
81697;SDS011;71109;52.514;5.708;2024-02-21T13:59:35;16.57;;;6.27;;
81697;SDS011;71109;52.514;5.708;2024-02-21T14:02:01;11.60;;;5.75;;
81697;SDS011;71109;52.514;5.708;2024-02-21T14:04:26;16.20;;;5.53;;
81697;SDS011;71109;52.514;5.708;2024-02-21T14:06:52;10.10;;;5.35;;
81697;SDS011;71109;52.514;5.708;2024-02-21T14:09:18;14.65;;;5.40;;
81697;SDS011;71109;52.514;5.708;2024-02-21T14:11:44;9.57;;;5.45;;
81697;SDS011;71109;52.514;5.708;2024-02-21T14:14:10;12.68;;;5.38;;
81697;SDS011;71109;52.514;5.708;2024-02-21T14:16:35;12.85;;;5.25;;
81697;SDS011;71109;52.514;5.708;2024-02-21T14:19:01;14.05;;;5.53;;
81697;SDS011;71109;52.514;5.708;2024-02-21T14:21:27;13.88;;;5.43;;
81697;SDS011;71109;52.514;5.708;2024-02-21T14:23:53;8.43;;;4.82;;
81697;SDS011;71109;52.514;5.708;2024-02-21T14:26:19;15.85;;;6.05;;
81697;SDS011;71109;52.514;5.708;2024-02-21T14:28:44;15.00;;;6.13;;
81697;SDS011;71109;52.514;5.708;2024-02-21T14:31:10;12.38;;;5.60;;
81697;SDS011;71109;52.514;5.708;2024-02-21T14:33:36;13.90;;;5.47;;